Time,TemperatureF,DewpointF,PressureIn,WindDirection,WindDirectionDegrees,WindSpeedMPH,WindSpeedGustMPH,Humidity,HourlyPrecipIn,Conditions,Clouds,dailyrainin,SolarRadiationWatts/m^2,SoftwareType,DateUTC
2013-06-18 00:11:00,54.0,35.0,-100.00,SE,141,16.0,22.0,48,0.00,,,0.00,0.000000,,2013-06-18 06:11:00,
2013-06-18 00:23:00,54.0,35.0,-100.00,SE,141,16.0,22.0,48,0.00,,,0.00,0.000000,,2013-06-18 06:23:00,
2013-06-18 00:32:00,54.0,35.0,-100.00,SE,141,16.0,22.0,48,0.00,,,0.00,0.000000,,2013-06-18 06:32:00,
2013-06-18 00:43:00,54.0,35.0,-100.00,SE,141,16.0,22.0,48,0.00,,,0.00,0.000000,,2013-06-18 06:43:00,
2013-06-18 01:12:00,53.0,34.0,-100.00,SE,140,15.0,21.0,48,0.00,,,0.00,0.000000,,2013-06-18 07:12:00,
2013-06-18 01:22:00,53.0,34.0,-100.00,SE,140,15.0,21.0,48,0.00,,,0.00,0.000000,,2013-06-18 07:22:00,
2013-06-18 01:33:00,53.0,34.0,-100.00,SE,140,15.0,21.0,48,0.00,,,0.00,0.000000,,2013-06-18 07:33:00,
2013-06-18 01:43:00,53.0,34.0,-100.00,SE,140,15.0,21.0,48,0.00,,,0.00,0.000000,,2013-06-18 07:43:00,
2013-06-18 02:11:00,54.0,33.0,-100.00,SSE,154,19.0,24.0,44,0.00,,,0.00,0.000000,,2013-06-18 08:11:00,
2013-06-18 02:23:00,54.0,33.0,-100.00,SSE,154,19.0,24.0,44,0.00,,,0.00,0.000000,,2013-06-18 08:23:00,
2013-06-18 02:33:00,54.0,33.0,-100.00,SSE,154,19.0,24.0,44,0.00,,,0.00,0.000000,,2013-06-18 08:33:00,
2013-06-18 02:43:00,54.0,33.0,-100.00,SSE,154,19.0,24.0,44,0.00,,,0.00,0.000000,,2013-06-18 08:43:00,
2013-06-18 03:12:00,53.0,33.0,-100.00,SE,134,13.0,21.0,46,0.00,,,0.00,0.000000,,2013-06-18 09:12:00,
2013-06-18 03:22:00,53.0,33.0,-100.00,SE,134,13.0,21.0,46,0.00,,,0.00,0.000000,,2013-06-18 09:22:00,
2013-06-18 03:34:00,53.0,33.0,-100.00,SE,134,13.0,21.0,46,0.00,,,0.00,0.000000,,2013-06-18 09:34:00,
2013-06-18 03:43:00,53.0,33.0,-100.00,SE,134,13.0,21.0,46,0.00,,,0.00,0.000000,,2013-06-18 09:43:00,
2013-06-18 04:11:00,51.0,33.0,-100.00,SSE,150,10.0,17.0,49,0.00,,,0.00,0.000000,,2013-06-18 10:11:00,
2013-06-18 04:22:00,51.0,33.0,-100.00,SSE,150,10.0,17.0,49,0.00,,,0.00,0.000000,,2013-06-18 10:22:00,
2013-06-18 04:33:00,51.0,33.0,-100.00,SSE,150,10.0,17.0,49,0.00,,,0.00,0.000000,,2013-06-18 10:33:00,
2013-06-18 04:43:00,51.0,33.0,-100.00,SSE,150,10.0,17.0,49,0.00,,,0.00,0.000000,,2013-06-18 10:43:00,
2013-06-18 05:11:00,51.0,32.0,-100.00,SE,129,8.0,16.0,48,0.00,,,0.00,0.000000,,2013-06-18 11:11:00,
2013-06-18 05:22:00,51.0,32.0,-100.00,SE,129,8.0,16.0,48,0.00,,,0.00,0.000000,,2013-06-18 11:22:00,
2013-06-18 05:32:00,51.0,32.0,-100.00,SE,129,8.0,16.0,48,0.00,,,0.00,0.000000,,2013-06-18 11:32:00,
2013-06-18 05:43:00,51.0,32.0,-100.00,SE,129,8.0,16.0,48,0.00,,,0.00,0.000000,,2013-06-18 11:43:00,
2013-06-18 06:11:00,50.0,32.0,-100.00,SE,133,9.0,11.0,50,0.00,,,0.00,1.000000,,2013-06-18 12:11:00,
2013-06-18 06:22:00,50.0,32.0,-100.00,SE,133,9.0,11.0,50,0.00,,,0.00,1.000000,,2013-06-18 12:22:00,
2013-06-18 06:33:00,50.0,32.0,-100.00,SE,133,9.0,11.0,50,0.00,,,0.00,1.000000,,2013-06-18 12:33:00,
2013-06-18 06:43:00,50.0,32.0,-100.00,SE,133,9.0,11.0,50,0.00,,,0.00,1.000000,,2013-06-18 12:43:00,
2013-06-18 07:12:00,53.0,34.0,-100.00,SE,135,7.0,12.0,48,0.00,,,-99.99,67.000000,,2013-06-18 13:12:00,
2013-06-18 07:22:00,53.0,34.0,-100.00,SE,135,7.0,12.0,48,0.00,,,-99.99,67.000000,,2013-06-18 13:22:00,
2013-06-18 07:33:00,53.0,34.0,-100.00,SE,135,7.0,12.0,48,0.00,,,-99.99,67.000000,,2013-06-18 13:33:00,
2013-06-18 07:43:00,53.0,34.0,-100.00,SE,135,7.0,12.0,48,0.00,,,-99.99,67.000000,,2013-06-18 13:43:00,
2013-06-18 08:33:00,58.0,37.0,-100.00,ESE,117,3.0,10.0,46,0.00,,,0.00,327.000000,,2013-06-18 14:33:00,
2013-06-18 08:43:00,58.0,37.0,-100.00,ESE,117,3.0,10.0,46,0.00,,,0.00,327.000000,,2013-06-18 14:43:00,
2013-06-18 09:11:00,62.0,38.0,-100.00,SE,132,5.0,8.0,41,0.00,,,0.00,459.000000,,2013-06-18 15:11:00,
2013-06-18 09:22:00,62.0,38.0,-100.00,SE,132,5.0,8.0,41,0.00,,,0.00,459.000000,,2013-06-18 15:22:00,
2013-06-18 09:33:00,62.0,38.0,-100.00,SE,132,5.0,8.0,41,0.00,,,0.00,459.000000,,2013-06-18 15:33:00,
2013-06-18 09:43:00,62.0,38.0,-100.00,SE,132,5.0,8.0,41,0.00,,,0.00,459.000000,,2013-06-18 15:43:00,
2013-06-18 10:11:00,67.0,40.0,-100.00,SE,133,3.0,7.0,37,0.00,,,0.00,785.000000,,2013-06-18 16:11:00,
2013-06-18 10:22:00,67.0,40.0,-100.00,SE,133,3.0,7.0,37,0.00,,,0.00,785.000000,,2013-06-18 16:22:00,
2013-06-18 10:33:00,67.0,40.0,-100.00,SE,133,3.0,7.0,37,0.00,,,0.00,785.000000,,2013-06-18 16:33:00,
2013-06-18 10:43:00,67.0,40.0,-100.00,SE,133,3.0,7.0,37,0.00,,,0.00,785.000000,,2013-06-18 16:43:00,
2013-06-18 11:33:00,72.0,40.0,-100.00,SSE,148,2.0,7.0,31,0.00,,,0.00,985.000000,,2013-06-18 17:33:00,
2013-06-18 11:43:00,72.0,40.0,-100.00,SSE,148,2.0,7.0,31,0.00,,,0.00,985.000000,,2013-06-18 17:43:00,
2013-06-18 12:11:00,75.0,40.0,-100.00,NNE,18,3.0,10.0,28,0.00,,,0.00,1144.000000,,2013-06-18 18:11:00,
2013-06-18 12:22:00,75.0,40.0,-100.00,NNE,18,3.0,10.0,28,0.00,,,0.00,1144.000000,,2013-06-18 18:22:00,
2013-06-18 12:33:00,75.0,40.0,-100.00,NNE,18,3.0,10.0,28,0.00,,,0.00,1144.000000,,2013-06-18 18:33:00,
2013-06-18 12:42:00,75.0,40.0,-100.00,NNE,18,3.0,10.0,28,0.00,,,0.00,1144.000000,,2013-06-18 18:42:00,
2013-06-18 13:11:00,77.0,27.0,-100.00,SW,225,10.0,25.0,16,0.00,,,0.00,1225.000000,,2013-06-18 19:11:00,
2013-06-18 13:22:00,77.0,27.0,-100.00,SW,225,10.0,25.0,16,0.00,,,0.00,1225.000000,,2013-06-18 19:22:00,
2013-06-18 13:33:00,77.0,27.0,-100.00,SW,225,10.0,25.0,16,0.00,,,0.00,1225.000000,,2013-06-18 19:33:00,
2013-06-18 13:43:00,77.0,27.0,-100.00,SW,225,10.0,25.0,16,0.00,,,0.00,1225.000000,,2013-06-18 19:43:00,
2013-06-18 14:11:00,76.0,27.0,-100.00,SSW,213,13.0,26.0,16,0.00,,,0.00,1286.000000,,2013-06-18 20:11:00,
2013-06-18 14:23:00,76.0,27.0,-100.00,SSW,213,13.0,26.0,16,0.00,,,0.00,1286.000000,,2013-06-18 20:23:00,
2013-06-18 14:33:00,76.0,27.0,-100.00,SSW,213,13.0,26.0,16,0.00,,,0.00,1286.000000,,2013-06-18 20:33:00,
2013-06-18 14:43:00,76.0,27.0,-100.00,SSW,213,13.0,26.0,16,0.00,,,0.00,1286.000000,,2013-06-18 20:43:00,
2013-06-18 15:11:00,80.0,34.0,-100.00,WSW,250,7.0,26.0,19,0.00,,,-99.99,1109.000000,,2013-06-18 21:11:00,
2013-06-18 15:23:00,80.0,34.0,-100.00,WSW,250,7.0,26.0,19,0.00,,,-99.99,1109.000000,,2013-06-18 21:23:00,
2013-06-18 15:33:00,80.0,34.0,-100.00,WSW,250,7.0,26.0,19,0.00,,,-99.99,1109.000000,,2013-06-18 21:33:00,
2013-06-18 15:43:00,80.0,34.0,-100.00,WSW,250,7.0,26.0,19,0.00,,,-99.99,1109.000000,,2013-06-18 21:43:00,
2013-06-18 16:11:00,76.0,29.0,-100.00,SW,218,14.0,25.0,18,0.00,,,0.00,1080.000000,,2013-06-18 22:11:00,
2013-06-18 16:22:00,76.0,29.0,-100.00,SW,218,14.0,25.0,18,0.00,,,0.00,1080.000000,,2013-06-18 22:22:00,
2013-06-18 16:34:00,76.0,29.0,-100.00,SW,218,14.0,25.0,18,0.00,,,0.00,1080.000000,,2013-06-18 22:34:00,
2013-06-18 16:43:00,76.0,29.0,-100.00,SW,218,14.0,25.0,18,0.00,,,0.00,1080.000000,,2013-06-18 22:43:00,
2013-06-18 17:11:00,77.0,30.0,-100.00,WSW,241,9.0,22.0,18,0.00,,,0.00,908.000000,,2013-06-18 23:11:00,
2013-06-18 17:23:00,77.0,30.0,-100.00,WSW,241,9.0,22.0,18,0.00,,,0.00,908.000000,,2013-06-18 23:23:00,
2013-06-18 17:36:00,77.0,30.0,-100.00,WSW,241,9.0,22.0,18,0.00,,,0.00,908.000000,,2013-06-18 23:36:00,
2013-06-18 17:45:00,77.0,30.0,-100.00,WSW,241,9.0,22.0,18,0.00,,,0.00,908.000000,,2013-06-18 23:45:00,
2013-06-18 18:11:00,72.0,29.0,-100.00,WSW,237,8.0,24.0,20,0.00,,,0.00,575.000000,,2013-06-19 00:11:00,
2013-06-18 18:22:00,72.0,29.0,-100.00,WSW,237,8.0,24.0,20,0.00,,,0.00,575.000000,,2013-06-19 00:22:00,
2013-06-18 18:33:00,72.0,29.0,-100.00,WSW,237,8.0,24.0,20,0.00,,,0.00,575.000000,,2013-06-19 00:33:00,
2013-06-18 18:43:00,72.0,29.0,-100.00,WSW,237,8.0,24.0,20,0.00,,,0.00,575.000000,,2013-06-19 00:43:00,
2013-06-18 19:11:00,71.0,25.0,-100.00,SW,231,12.0,23.0,18,0.00,,,0.00,386.000000,,2013-06-19 01:11:00,
2013-06-18 19:22:00,71.0,25.0,-100.00,SW,231,12.0,23.0,18,0.00,,,0.00,386.000000,,2013-06-19 01:22:00,
2013-06-18 19:32:00,71.0,25.0,-100.00,SW,231,12.0,23.0,18,0.00,,,0.00,386.000000,,2013-06-19 01:32:00,
2013-06-18 19:42:00,71.0,25.0,-100.00,SW,231,12.0,23.0,18,0.00,,,0.00,386.000000,,2013-06-19 01:42:00,
2013-06-18 20:11:00,70.0,28.0,-100.00,West,264,7.0,20.0,21,0.00,,,0.00,123.000000,,2013-06-19 02:11:00,
2013-06-18 20:21:00,70.0,28.0,-100.00,West,264,7.0,20.0,21,0.00,,,0.00,123.000000,,2013-06-19 02:21:00,
2013-06-18 20:32:00,70.0,28.0,-100.00,West,264,7.0,20.0,21,0.00,,,0.00,123.000000,,2013-06-19 02:32:00,
2013-06-18 20:42:00,70.0,28.0,-100.00,West,264,7.0,20.0,21,0.00,,,0.00,123.000000,,2013-06-19 02:42:00,
2013-06-18 21:11:00,67.0,21.0,-100.00,West,264,7.0,12.0,17,0.00,,,0.00,38.000000,,2013-06-19 03:11:00,
2013-06-18 21:22:00,67.0,21.0,-100.00,West,264,7.0,12.0,17,0.00,,,0.00,38.000000,,2013-06-19 03:22:00,
2013-06-18 21:33:00,67.0,21.0,-100.00,West,264,7.0,12.0,17,0.00,,,0.00,38.000000,,2013-06-19 03:33:00,